Terminal Aerodrome Forecast
Issued by NWS

Home | Current Version | Previous Version | Text Only | Print | Product List | Glossary On
Versions: 1 2 3 4 5 6 7 8 9 10 11 12 13 14
000
FTUS41 KBTV 232320
TAFPBG
TAF
KPBG 232320Z 2400/2424 26006KT P6SM VCSH SCT150
      TEMPO 2400/2402 5SM -SHRA SCT050
     FM240400 27005KT P6SM SCT100
     FM241800 30005KT P6SM SCT050=

USA.gov is the U.S. government's official web portal to all federal, state and local government web resources and services.